Time;durP1;ratioP1;P1;durP2;ratioP2;P2;SDS_P1;SDS_P2;PMS_P1;PMS_P2;Temp;Humidity;BMP_temperature;BMP_pressure;BME280_temperature;BME280_humidity;BME280_pressure;Samples;Min_cycle;Max_cycle;Signal;HPM_P1;HPM_P2
2023/09/22 00:01:21;;;;;;;20.35;11.93;;;15.20;99.90;;;;;;5027937;28;20095;-68
2023/09/22 00:03:48;;;;;;;17.92;11.20;;;15.20;99.90;;;;;;5029753;28;20046;-68
2023/09/22 00:06:14;;;;;;;18.77;11.90;;;15.20;99.90;;;;;;5022670;28;20076;-67
2023/09/22 00:08:39;;;;;;;20.85;11.55;;;15.20;99.90;;;;;;5031841;28;20068;-68
2023/09/22 00:11:07;;;;;;;19.73;12.02;;;15.20;99.90;;;;;;5023188;28;20069;-68
2023/09/22 00:13:33;;;;;;;21.70;12.32;;;15.20;99.90;;;;;;5026738;28;20040;-68
2023/09/22 00:15:58;;;;;;;19.75;12.15;;;15.10;99.90;;;;;;5027031;28;20037;-69
2023/09/22 00:18:24;;;;;;;20.15;11.82;;;15.20;99.90;;;;;;5031432;28;20037;-68
2023/09/22 00:20:50;;;;;;;17.30;10.93;;;15.20;99.90;;;;;;5022046;28;20049;-68
2023/09/22 00:23:15;;;;;;;16.40;10.57;;;15.20;99.90;;;;;;5022657;28;20116;-68
2023/09/22 00:25:41;;;;;;;17.92;11.25;;;15.10;99.90;;;;;;5013774;28;20065;-68
2023/09/22 00:28:07;;;;;;;17.85;11.32;;;15.10;99.90;;;;;;5021981;28;20042;-69
2023/09/22 00:30:33;;;;;;;15.85;11.48;;;15.10;99.90;;;;;;5026609;28;20046;-68
2023/09/22 00:32:58;;;;;;;20.27;11.85;;;15.10;99.90;;;;;;5027148;28;20476;-67
2023/09/22 00:35:25;;;;;;;18.98;10.90;;;15.10;99.90;;;;;;5029164;28;20056;-67
2023/09/22 00:37:51;;;;;;;18.08;10.55;;;15.10;99.90;;;;;;5013951;28;20093;-68
2023/09/22 00:40:17;;;;;;;18.20;10.57;;;15.10;99.90;;;;;;5028326;28;20077;-68
2023/09/22 00:42:42;;;;;;;18.80;10.77;;;15.10;99.90;;;;;;5031455;28;20041;-68
2023/09/22 00:45:08;;;;;;;18.55;11.75;;;15.00;99.90;;;;;;5023174;28;20416;-69
2023/09/22 00:47:34;;;;;;;18.77;10.82;;;15.00;99.90;;;;;;5026038;28;20607;-69
2023/09/22 00:50:01;;;;;;;20.15;11.60;;;15.00;99.90;;;;;;5027125;28;20435;-68
2023/09/22 00:52:27;;;;;;;18.35;11.55;;;15.00;99.90;;;;;;5022684;28;20087;-68
2023/09/22 00:54:55;;;;;;;17.33;10.75;;;15.00;99.90;;;;;;5002325;28;20503;-68
2023/09/22 00:57:21;;;;;;;17.20;10.75;;;15.10;99.90;;;;;;5022312;28;20033;-68
2023/09/22 00:59:47;;;;;;;16.40;11.02;;;15.00;99.90;;;;;;5025693;28;20624;-67
2023/09/22 01:02:13;;;;;;;16.85;10.82;;;15.00;99.90;;;;;;5022394;28;20046;-67
2023/09/22 01:04:38;;;;;;;16.77;11.40;;;15.10;99.90;;;;;;5022390;28;20595;-69
2023/09/22 01:07:04;;;;;;;21.98;11.23;;;15.10;99.90;;;;;;5030901;28;20415;-67
2023/09/22 01:09:30;;;;;;;19.40;11.35;;;15.00;99.90;;;;;;5010223;28;20140;-68
2023/09/22 01:11:55;;;;;;;22.35;10.95;;;15.00;99.90;;;;;;5025831;28;20125;-68
2023/09/22 01:14:21;;;;;;;18.45;11.13;;;15.00;99.90;;;;;;5022342;28;20045;-68
2023/09/22 01:16:50;;;;;;;18.58;11.43;;;15.00;99.90;;;;;;5027627;28;20485;-68
2023/09/22 01:19:16;;;;;;;18.13;11.23;;;15.00;99.90;;;;;;5021143;28;20046;-68
2023/09/22 01:21:46;;;;;;;22.42;11.32;;;15.00;99.90;;;;;;5005651;28;20095;-68
2023/09/22 01:24:13;;;;;;;18.97;11.50;;;15.00;99.90;;;;;;5032821;28;20041;-67
2023/09/22 01:26:39;;;;;;;23.25;11.38;;;15.00;99.90;;;;;;5023757;28;21180;-68
2023/09/22 01:29:05;;;;;;;19.27;12.30;;;15.00;99.90;;;;;;5022824;28;20038;-68
2023/09/22 01:31:33;;;;;;;21.55;12.45;;;15.00;99.90;;;;;;5033984;28;20033;-68
2023/09/22 01:36:29;;;;;;;22.27;12.68;;;15.00;99.90;;;;;;4997976;28;20042;-70
2023/09/22 01:38:57;;;;;;;20.38;12.48;;;15.00;99.90;;;;;;5014132;28;20092;-70
2023/09/22 01:41:23;;;;;;;22.23;13.20;;;15.00;99.90;;;;;;4996692;28;20042;-70
2023/09/22 01:43:48;;;;;;;21.13;12.40;;;15.00;99.90;;;;;;4988185;28;20041;-70
2023/09/22 01:46:14;;;;;;;21.05;12.10;;;15.00;99.90;;;;;;5020782;23;20053;-70
2023/09/22 01:48:39;;;;;;;21.02;13.18;;;15.00;99.90;;;;;;4993632;28;20772;-70
2023/09/22 01:51:05;;;;;;;23.75;12.82;;;15.00;99.90;;;;;;5026952;28;20503;-70
2023/09/22 01:53:31;;;;;;;23.38;13.68;;;15.00;99.90;;;;;;5021222;28;20053;-70
2023/09/22 01:55:56;;;;;;;24.73;13.20;;;15.00;99.90;;;;;;5033545;28;20120;-70
2023/09/22 01:58:22;;;;;;;23.30;12.98;;;15.00;99.90;;;;;;5032117;28;20480;-70
2023/09/22 02:00:50;;;;;;;26.55;13.82;;;15.00;99.90;;;;;;5023435;28;20054;-70
2023/09/22 02:03:16;;;;;;;27.73;14.45;;;15.00;99.90;;;;;;5016754;28;20050;-71
2023/09/22 02:05:42;;;;;;;28.40;14.18;;;14.90;99.90;;;;;;5033209;28;20103;-70
2023/09/22 02:08:08;;;;;;;23.65;13.75;;;14.90;99.90;;;;;;5021777;28;20100;-70
2023/09/22 02:10:34;;;;;;;25.08;13.40;;;14.90;99.90;;;;;;5020401;28;20034;-71
2023/09/22 02:13:00;;;;;;;25.70;14.20;;;14.90;99.90;;;;;;4996232;28;20046;-70
2023/09/22 02:15:25;;;;;;;26.02;14.38;;;14.90;99.90;;;;;;5015979;28;20033;-70
2023/09/22 02:17:51;;;;;;;25.55;15.02;;;15.00;99.90;;;;;;5005230;28;20380;-70
2023/09/22 02:20:22;;;;;;;24.73;13.55;;;15.00;99.90;;;;;;5013273;28;20033;-70
2023/09/22 02:22:52;;;;;;;;;;;14.90;99.90;;;;;;5011035;28;20065;-70
2023/09/22 02:25:19;;;;;;;23.88;12.82;;;14.90;99.90;;;;;;5021492;28;19925;-70
2023/09/22 02:27:47;;;;;;;22.83;13.60;;;14.90;99.90;;;;;;5032671;28;20047;-70
2023/09/22 02:30:14;;;;;;;24.45;13.63;;;14.90;99.90;;;;;;5033386;28;20098;-70
2023/09/22 02:32:42;;;;;;;22.33;13.73;;;14.90;99.90;;;;;;5009601;28;20045;-70
2023/09/22 02:35:08;;;;;;;22.35;13.52;;;14.80;99.90;;;;;;5023459;28;20392;-70
2023/09/22 02:37:34;;;;;;;25.10;14.02;;;14.80;99.90;;;;;;5007150;28;20480;-70
2023/09/22 02:39:59;;;;;;;23.33;13.55;;;14.80;99.90;;;;;;5012079;28;20091;-70
2023/09/22 02:42:26;;;;;;;23.73;13.55;;;14.80;99.90;;;;;;5008711;28;20038;-70
2023/09/22 02:44:52;;;;;;;25.00;14.40;;;14.80;99.90;;;;;;5022444;28;20048;-70
2023/09/22 02:47:18;;;;;;;25.02;14.50;;;14.80;99.90;;;;;;5032733;28;20112;-70
2023/09/22 02:49:43;;;;;;;25.58;14.10;;;14.80;99.90;;;;;;5025218;28;20053;-70
2023/09/22 02:52:10;;;;;;;24.42;13.45;;;14.80;99.90;;;;;;4997167;28;20046;-70
2023/09/22 02:54:36;;;;;;;24.83;13.73;;;14.80;99.90;;;;;;5014885;28;20091;-70
2023/09/22 02:57:03;;;;;;;26.85;14.48;;;14.80;99.90;;;;;;5007236;28;20625;-70
2023/09/22 02:59:29;;;;;;;31.23;13.65;;;14.80;99.90;;;;;;5012696;28;20069;-70
2023/09/22 03:01:55;;;;;;;22.15;12.95;;;14.80;99.90;;;;;;5020847;28;20492;-70
2023/09/22 03:04:21;;;;;;;24.05;14.20;;;14.70;99.90;;;;;;4995335;28;20045;-70
2023/09/22 03:06:47;;;;;;;23.30;13.40;;;14.70;99.90;;;;;;4998876;28;20045;-70
2023/09/22 03:09:14;;;;;;;20.83;12.32;;;14.70;99.90;;;;;;4997774;28;20068;-70
2023/09/22 03:11:40;;;;;;;26.02;12.68;;;14.70;99.90;;;;;;5014179;28;20521;-70
2023/09/22 03:14:06;;;;;;;19.17;11.25;;;14.70;99.90;;;;;;5025751;28;20042;-70
2023/09/22 03:16:31;;;;;;;23.17;10.75;;;14.70;99.90;;;;;;5006691;28;20033;-70
2023/09/22 03:18:57;;;;;;;18.45;10.70;;;14.70;99.90;;;;;;5032092;28;20044;-70
2023/09/22 03:21:26;;;;;;;21.23;11.32;;;14.70;99.90;;;;;;5011230;28;20076;-70
2023/09/22 03:23:53;;;;;;;23.10;10.55;;;14.70;99.90;;;;;;4999510;28;20120;-70
2023/09/22 03:26:19;;;;;;;19.15;9.63;;;14.60;99.90;;;;;;5004310;28;20120;-70
2023/09/22 03:28:45;;;;;;;16.00;9.60;;;14.60;99.90;;;;;;5011891;28;20092;-70
2023/09/22 03:31:11;;;;;;;18.65;10.85;;;14.60;99.90;;;;;;5013069;28;20046;-70
2023/09/22 03:33:40;;;;;;;19.90;9.98;;;14.60;99.90;;;;;;5017841;28;20037;-70
2023/09/22 03:36:10;;;;;;;18.73;10.70;;;14.60;99.90;;;;;;5014391;28;20488;-70
2023/09/22 03:38:36;;;;;;;17.95;10.30;;;14.60;99.90;;;;;;5002316;28;20491;-71
2023/09/22 03:41:03;;;;;;;19.83;11.73;;;14.60;99.90;;;;;;5008511;28;20049;-70
2023/09/22 03:43:29;;;;;;;20.98;11.18;;;14.50;99.90;;;;;;5001969;28;20499;-70
2023/09/22 03:45:55;;;;;;;20.90;10.85;;;14.60;99.90;;;;;;5011487;28;20042;-70
2023/09/22 03:48:22;;;;;;;25.50;13.65;;;14.50;99.90;;;;;;5009312;28;20937;-70
2023/09/22 03:50:48;;;;;;;24.15;13.45;;;14.50;99.90;;;;;;5031222;28;20037;-70
2023/09/22 03:53:13;;;;;;;24.13;12.65;;;14.50;99.90;;;;;;5013502;28;20045;-70
2023/09/22 03:55:39;;;;;;;25.08;13.85;;;14.50;99.90;;;;;;5006188;28;20030;-70
2023/09/22 03:58:05;;;;;;;24.88;13.48;;;14.50;99.90;;;;;;5011601;28;20035;-70
2023/09/22 04:00:31;;;;;;;24.17;14.10;;;14.50;99.90;;;;;;4990013;28;20410;-70
2023/09/22 04:02:57;;;;;;;25.17;14.05;;;14.50;99.90;;;;;;5027463;28;20042;-70
2023/09/22 04:05:22;;;;;;;30.23;14.60;;;14.30;99.90;;;;;;5010814;28;20436;-70
2023/09/22 04:07:48;;;;;;;26.65;14.15;;;14.20;99.90;;;;;;4993922;28;20053;-70
2023/09/22 04:10:16;;;;;;;27.85;15.80;;;14.10;99.90;;;;;;5011689;28;20495;-70
2023/09/22 04:12:42;;;;;;;25.00;14.23;;;14.10;99.90;;;;;;5028266;28;20048;-70
2023/09/22 04:15:08;;;;;;;28.33;15.65;;;14.00;99.90;;;;;;4999859;28;20038;-70
2023/09/22 04:17:34;;;;;;;31.05;15.18;;;13.90;99.90;;;;;;5013288;28;20052;-70
2023/09/22 04:20:00;;;;;;;30.33;16.35;;;13.90;99.90;;;;;;5009345;28;20052;-69
2023/09/22 04:22:28;;;;;;;39.55;17.40;;;13.80;99.90;;;;;;5018407;28;20172;-69
2023/09/22 04:25:00;;;;;;;30.40;16.13;;;13.80;99.90;;;;;;5006244;28;20532;-70
2023/09/22 04:27:34;;;;;;;32.65;17.52;;;13.70;99.90;;;;;;4993928;28;20439;-70
2023/09/22 04:30:07;;;;;;;34.20;15.77;;;13.60;99.90;;;;;;4993980;28;20504;-70
2023/09/22 04:32:33;;;;;;;36.05;18.83;;;13.70;99.90;;;;;;5001111;28;20034;-70
2023/09/22 04:34:59;;;;;;;38.17;18.33;;;13.60;99.90;;;;;;5027131;28;20072;-70
2023/09/22 04:37:25;;;;;;;34.08;17.20;;;13.50;99.90;;;;;;5006509;28;20041;-70
2023/09/22 04:39:52;;;;;;;32.67;16.25;;;13.50;99.90;;;;;;5025090;28;20155;-70
2023/09/22 04:42:18;;;;;;;35.28;17.70;;;13.40;99.90;;;;;;5013178;28;20411;-70
2023/09/22 04:44:45;;;;;;;37.80;18.98;;;13.40;99.90;;;;;;5027691;28;20044;-70
2023/09/22 04:47:10;;;;;;;39.65;19.27;;;13.30;99.90;;;;;;5015899;28;20140;-70
2023/09/22 04:49:36;;;;;;;38.58;18.73;;;13.30;99.90;;;;;;5010289;28;20183;-70
2023/09/22 04:52:02;;;;;;;39.80;19.73;;;13.30;99.90;;;;;;4993898;28;20701;-69
2023/09/22 04:54:29;;;;;;;36.83;18.75;;;13.20;99.90;;;;;;5011957;28;20081;-69
2023/09/22 04:56:55;;;;;;;41.60;19.83;;;13.30;99.90;;;;;;5002713;28;20117;-70
2023/09/22 04:59:21;;;;;;;39.13;18.27;;;13.20;99.90;;;;;;5032893;28;20128;-73
2023/09/22 05:01:46;;;;;;;41.08;19.15;;;13.20;99.90;;;;;;5006270;28;20042;-70
2023/09/22 05:04:12;;;;;;;40.45;19.17;;;13.20;99.90;;;;;;5013760;28;20073;-69
2023/09/22 05:06:37;;;;;;;39.00;18.52;;;13.10;99.90;;;;;;4994672;28;20128;-70
2023/09/22 05:09:03;;;;;;;42.38;21.88;;;13.10;99.90;;;;;;5021813;28;20049;-69
2023/09/22 05:11:29;;;;;;;42.92;21.08;;;13.10;99.90;;;;;;4995900;28;20690;-70
2023/09/22 05:13:54;;;;;;;43.13;21.55;;;13.10;99.90;;;;;;4992339;28;20123;-70
2023/09/22 05:16:21;;;;;;;45.15;20.50;;;13.10;99.90;;;;;;5012192;28;20048;-70
2023/09/22 05:18:46;;;;;;;44.10;19.58;;;13.10;99.90;;;;;;5030357;28;20458;-70
2023/09/22 05:21:12;;;;;;;41.60;18.95;;;13.00;99.90;;;;;;5011440;28;20056;-70
2023/09/22 05:23:38;;;;;;;40.70;19.02;;;13.00;99.90;;;;;;5015971;28;20049;-68
2023/09/22 05:26:08;;;;;;;43.72;18.75;;;13.10;99.90;;;;;;5013798;28;20046;-70
2023/09/22 05:28:36;;;;;;;42.20;18.05;;;13.00;99.90;;;;;;5023134;28;20492;-69
2023/09/22 05:31:06;;;;;;;40.15;18.02;;;13.10;99.90;;;;;;4999360;28;20088;-69
2023/09/22 05:33:33;;;;;;;40.75;18.25;;;13.10;99.90;;;;;;4997350;28;20073;-69
2023/09/22 05:35:59;;;;;;;38.17;16.85;;;13.10;99.90;;;;;;4994336;28;20121;-69
2023/09/22 05:38:25;;;;;;;36.70;16.73;;;13.10;99.90;;;;;;5019728;28;20099;-69
2023/09/22 05:40:50;;;;;;;36.75;16.25;;;13.10;99.90;;;;;;5008720;28;20415;-69
2023/09/22 05:43:17;;;;;;;39.03;16.02;;;13.10;99.90;;;;;;4994689;28;20400;-69
2023/09/22 05:45:43;;;;;;;34.72;15.50;;;13.20;99.90;;;;;;5004041;28;20070;-69
2023/09/22 05:48:09;;;;;;;35.50;14.55;;;13.20;99.90;;;;;;5013300;28;20459;-69
2023/09/22 05:50:35;;;;;;;32.85;14.43;;;13.20;99.90;;;;;;5034174;28;20041;-68
2023/09/22 05:53:03;;;;;;;30.40;14.43;;;13.20;99.90;;;;;;5031496;28;20034;-70
2023/09/22 05:55:30;;;;;;;33.38;14.02;;;13.30;99.90;;;;;;5023202;28;20045;-71
2023/09/22 05:57:56;;;;;;;30.65;13.13;;;13.30;99.90;;;;;;5030344;28;20052;-70
2023/09/22 06:00:26;;;;;;;29.90;13.48;;;13.30;99.90;;;;;;5007543;28;20049;-72
2023/09/22 06:02:52;;;;;;;32.00;14.13;;;13.30;99.90;;;;;;5000964;28;20064;-69
2023/09/22 06:05:19;;;;;;;32.75;13.20;;;13.30;99.90;;;;;;5028667;28;20048;-70
2023/09/22 06:07:45;;;;;;;27.80;12.57;;;13.30;99.90;;;;;;4999257;28;20132;-70
2023/09/22 06:10:10;;;;;;;26.23;11.50;;;13.30;99.90;;;;;;5011837;28;20128;-71
2023/09/22 06:12:37;;;;;;;27.48;11.98;;;13.40;99.90;;;;;;5025995;28;20124;-69
2023/09/22 06:15:07;;;;;;;27.83;12.35;;;13.40;99.90;;;;;;5030114;28;20048;-70
2023/09/22 06:17:37;;;;;;;25.73;11.67;;;13.40;99.90;;;;;;5004816;28;20111;-71
2023/09/22 06:20:15;;;;;;;21.70;10.82;;;13.40;99.90;;;;;;5011878;28;20363;-70
2023/09/22 06:22:42;;;;;;;23.73;11.43;;;13.50;99.90;;;;;;5015774;28;20657;-71
2023/09/22 06:25:08;;;;;;;26.33;11.98;;;13.60;99.90;;;;;;5015293;28;20041;-70
2023/09/22 06:27:34;;;;;;;25.85;11.65;;;13.60;99.90;;;;;;5005171;28;20083;-70
2023/09/22 06:30:00;;;;;;;26.60;11.60;;;13.60;99.90;;;;;;5018004;28;20046;-70
2023/09/22 06:32:26;;;;;;;24.13;11.52;;;13.60;99.90;;;;;;4995884;28;20484;-70
2023/09/22 06:34:53;;;;;;;28.75;11.60;;;13.70;99.90;;;;;;4997489;28;20052;-69
2023/09/22 06:37:19;;;;;;;26.00;11.15;;;13.70;99.90;;;;;;5006066;28;20569;-70
2023/09/22 06:39:46;;;;;;;23.38;11.68;;;13.70;99.90;;;;;;5009571;28;20507;-70
2023/09/22 06:42:11;;;;;;;22.50;10.30;;;13.70;99.90;;;;;;5015579;28;20072;-70
2023/09/22 06:44:37;;;;;;;20.88;10.45;;;13.70;99.90;;;;;;5008479;28;20503;-69
2023/09/22 06:47:04;;;;;;;21.92;10.57;;;13.80;99.90;;;;;;5011341;28;20064;-70
2023/09/22 06:49:32;;;;;;;23.83;11.25;;;13.90;99.90;;;;;;4995591;28;20073;-70
2023/09/22 06:51:59;;;;;;;23.95;11.40;;;13.90;99.90;;;;;;5018790;28;20044;-71
2023/09/22 06:54:26;;;;;;;20.70;10.70;;;13.90;99.90;;;;;;5013541;28;20403;-72
2023/09/22 06:56:52;;;;;;;23.67;10.63;;;13.90;99.90;;;;;;4999786;28;20049;-71
2023/09/22 06:59:22;;;;;;;24.35;10.50;;;14.00;99.90;;;;;;5001704;28;20510;-70
2023/09/22 07:01:48;;;;;;;21.98;10.23;;;14.00;99.90;;;;;;5008088;28;20046;-70
2023/09/22 07:04:14;;;;;;;23.48;10.45;;;14.10;99.90;;;;;;5012735;28;20113;-70
2023/09/22 07:06:40;;;;;;;24.23;11.05;;;14.20;99.90;;;;;;5008946;28;20156;-69
2023/09/22 07:09:09;;;;;;;19.67;9.60;;;14.20;99.90;;;;;;5006517;28;20054;-70
2023/09/22 07:11:40;;;;;;;19.08;10.73;;;14.30;99.90;;;;;;5030998;28;20403;-70
2023/09/22 07:14:08;;;;;;;17.88;9.80;;;14.30;99.90;;;;;;5021304;28;20053;-70
2023/09/22 07:16:35;;;;;;;22.20;10.95;;;14.40;99.90;;;;;;5012102;28;20034;-70
2023/09/22 07:19:00;;;;;;;23.85;10.80;;;14.40;99.90;;;;;;4995098;28;20057;-70
2023/09/22 07:21:27;;;;;;;18.60;9.65;;;14.40;99.90;;;;;;4993201;28;20054;-70
2023/09/22 07:23:54;;;;;;;18.48;10.68;;;14.40;99.90;;;;;;5019063;28;20107;-70
2023/09/22 07:26:20;;;;;;;18.33;10.85;;;14.50;99.90;;;;;;4994075;28;20061;-70
2023/09/22 07:28:46;;;;;;;21.00;10.73;;;14.50;99.90;;;;;;5012218;28;20042;-70
2023/09/22 07:31:20;;;;;;;16.30;9.65;;;14.50;99.90;;;;;;5012457;28;20037;-70
2023/09/22 07:33:46;;;;;;;17.52;10.35;;;14.60;99.90;;;;;;4996493;28;20071;-70
2023/09/22 07:36:14;;;;;;;21.73;9.95;;;14.60;99.90;;;;;;5011792;28;20041;-70
2023/09/22 07:38:40;;;;;;;16.63;9.65;;;14.60;99.90;;;;;;5010199;28;20055;-70
2023/09/22 07:41:06;;;;;;;17.23;9.95;;;14.60;99.90;;;;;;5016563;28;20042;-70
2023/09/22 07:43:31;;;;;;;19.35;9.93;;;14.70;99.90;;;;;;5004357;28;20049;-70
2023/09/22 07:45:57;;;;;;;16.45;9.32;;;14.70;99.90;;;;;;5034160;23;20060;-68
2023/09/22 07:48:24;;;;;;;17.60;9.20;;;14.60;99.90;;;;;;5030194;28;20037;-67
2023/09/22 07:50:51;;;;;;;15.57;8.43;;;14.60;99.90;;;;;;5012274;28;20049;-67
2023/09/22 07:53:18;;;;;;;15.57;8.25;;;14.60;99.90;;;;;;5020441;28;20136;-67
2023/09/22 07:55:44;;;;;;;12.05;7.13;;;14.70;99.90;;;;;;5030263;28;20051;-68
2023/09/22 07:58:10;;;;;;;10.63;7.03;;;14.80;99.90;;;;;;5021545;28;20483;-68
2023/09/22 08:00:38;;;;;;;12.32;6.63;;;14.90;99.90;;;;;;5013041;28;20041;-67
2023/09/22 08:03:04;;;;;;;15.50;7.22;;;14.90;99.90;;;;;;5041156;28;20081;-67
2023/09/22 08:05:30;;;;;;;11.68;6.70;;;15.00;99.90;;;;;;5018780;28;20092;-68
2023/09/22 08:07:58;;;;;;;11.30;6.57;;;15.10;99.90;;;;;;5026984;28;20507;-67
2023/09/22 08:10:24;;;;;;;9.73;6.22;;;15.20;99.90;;;;;;5010097;28;20057;-68
2023/09/22 08:12:50;;;;;;;13.05;6.93;;;15.20;99.90;;;;;;5026182;28;20046;-68
2023/09/22 08:15:16;;;;;;;10.48;6.43;;;15.40;99.90;;;;;;5017747;28;20518;-67
2023/09/22 08:17:42;;;;;;;10.10;6.55;;;15.40;99.90;;;;;;5025892;28;20034;-68
2023/09/22 08:20:12;;;;;;;10.30;6.53;;;15.40;99.90;;;;;;5013262;28;20052;-67
2023/09/22 08:22:40;;;;;;;9.05;6.38;;;15.30;99.90;;;;;;5020514;28;20065;-68
2023/09/22 08:25:10;;;;;;;10.85;6.38;;;15.40;99.90;;;;;;5019935;28;20114;-68
2023/09/22 08:27:37;;;;;;;7.97;5.70;;;15.50;99.90;;;;;;5019990;28;20080;-67
2023/09/22 08:30:11;;;;;;;11.15;5.45;;;15.50;99.90;;;;;;5029078;28;20079;-67
2023/09/22 08:32:39;;;;;;;7.00;5.15;;;15.70;99.90;;;;;;5014505;28;20060;-67
2023/09/22 08:35:06;;;;;;;6.22;4.60;;;15.90;99.90;;;;;;5014199;28;20086;-67
2023/09/22 08:37:33;;;;;;;6.13;4.45;;;16.10;99.90;;;;;;5035191;28;20045;-68
2023/09/22 08:40:00;;;;;;;6.10;4.20;;;16.10;99.90;;;;;;5022846;28;20088;-68
2023/09/22 08:42:26;;;;;;;8.02;3.95;;;16.10;99.90;;;;;;5002355;28;20108;-68
2023/09/22 08:44:54;;;;;;;5.95;4.10;;;16.10;99.90;;;;;;5026413;28;20112;-68
2023/09/22 08:47:22;;;;;;;5.53;3.65;;;16.10;99.90;;;;;;5029063;28;20045;-68
2023/09/22 08:49:47;;;;;;;7.55;4.43;;;16.00;99.90;;;;;;5010019;28;20046;-67
2023/09/22 08:52:13;;;;;;;6.05;3.95;;;16.00;99.90;;;;;;5034966;28;20091;-67
2023/09/22 08:54:39;;;;;;;6.75;3.70;;;15.90;99.90;;;;;;5035100;28;20414;-68
2023/09/22 08:57:05;;;;;;;5.85;3.70;;;15.80;99.90;;;;;;5016931;28;20045;-68
2023/09/22 08:59:30;;;;;;;6.47;3.70;;;15.70;99.90;;;;;;5009785;28;20092;-67
2023/09/22 09:01:56;;;;;;;6.72;4.20;;;15.70;99.90;;;;;;5035052;28;20037;-67
2023/09/22 09:04:39;;;;;;;7.10;3.83;;;15.70;99.90;;;;;;5024939;28;20117;-67
2023/09/22 09:07:05;;;;;;;8.48;3.70;;;15.80;99.90;;;;;;5026754;28;20060;-67
2023/09/22 09:09:44;;;;;;;5.82;3.80;;;15.90;99.90;;;;;;5034528;28;20064;-68
2023/09/22 09:12:11;;;;;;;8.05;3.70;;;16.20;99.90;;;;;;5034830;28;20049;-67
2023/09/22 09:14:42;;;;;;;5.97;3.40;;;16.40;99.90;;;;;;5025706;28;20033;-67
2023/09/22 09:17:22;;;;;;;4.90;3.55;;;16.50;99.90;;;;;;5016215;28;20061;-68
2023/09/22 09:19:55;;;;;;;6.60;3.50;;;16.40;99.90;;;;;;5032960;28;20052;-66
2023/09/22 09:22:21;;;;;;;3.30;2.60;;;16.30;99.90;;;;;;5011696;28;20061;-66
2023/09/22 09:24:46;;;;;;;3.60;2.60;;;16.30;99.90;;;;;;5028567;28;20049;-68
2023/09/22 09:27:18;;;;;;;3.20;2.28;;;16.30;99.90;;;;;;5028041;28;20037;-68
2023/09/22 09:29:51;;;;;;;4.07;2.40;;;16.40;99.90;;;;;;5014831;28;20061;-67
2023/09/22 09:32:27;;;;;;;6.45;2.47;;;16.50;99.90;;;;;;5033925;28;20041;-68
2023/09/22 09:34:53;;;;;;;4.53;2.30;;;16.60;99.90;;;;;;5034148;28;20156;-67
2023/09/22 09:37:20;;;;;;;5.97;2.17;;;16.60;99.90;;;;;;5012583;28;20488;-67
2023/09/22 09:39:49;;;;;;;3.83;2.30;;;16.70;99.90;;;;;;5028578;28;20046;-67
2023/09/22 09:42:23;;;;;;;4.15;2.53;;;16.70;99.90;;;;;;4996445;28;20050;-68
2023/09/22 09:44:54;;;;;;;5.03;2.28;;;16.70;99.90;;;;;;5013043;28;20056;-67
2023/09/22 09:47:30;;;;;;;3.80;2.30;;;16.60;99.90;;;;;;5014675;28;20602;-68
2023/09/22 09:49:57;;;;;;;4.88;2.55;;;16.70;99.90;;;;;;5009904;28;20045;-68
2023/09/22 09:52:49;;;;;;;2.42;2.00;;;16.70;99.90;;;;;;5033833;28;20522;-68
2023/09/22 09:55:15;;;;;;;6.03;2.30;;;16.70;99.90;;;;;;5024028;28;20039;-67
2023/09/22 09:57:43;;;;;;;4.05;2.00;;;16.70;99.90;;;;;;5010994;28;20610;-67
2023/09/22 10:00:19;;;;;;;3.92;2.00;;;16.80;99.90;;;;;;5033782;28;20056;-67
2023/09/22 10:02:49;;;;;;;3.17;1.80;;;16.90;99.90;;;;;;5024324;28;20558;-68
2023/09/22 10:05:20;;;;;;;2.50;1.90;;;16.90;99.90;;;;;;5029894;28;20052;-67
2023/09/22 10:07:48;;;;;;;3.13;1.90;;;16.90;99.90;;;;;;5015689;28;20041;-67
2023/09/22 10:10:16;;;;;;;4.90;1.85;;;17.00;99.90;;;;;;5026537;28;20041;-67
2023/09/22 10:12:43;;;;;;;1.75;1.40;;;17.10;99.90;;;;;;5014493;28;20045;-66
2023/09/22 10:15:11;;;;;;;3.17;1.73;;;17.10;99.90;;;;;;5030960;28;20064;-67
2023/09/22 10:17:37;;;;;;;2.25;1.70;;;17.10;99.90;;;;;;5026055;28;20040;-68
2023/09/22 10:20:12;;;;;;;3.50;1.70;;;16.90;99.90;;;;;;5031736;28;20038;-67
2023/09/22 10:22:41;;;;;;;3.88;1.60;;;17.00;99.90;;;;;;5031204;28;20038;-67
2023/09/22 10:25:12;;;;;;;3.47;1.50;;;17.10;99.90;;;;;;5027541;28;20116;-67
2023/09/22 10:28:00;;;;;;;3.00;1.55;;;17.10;99.90;;;;;;5013252;28;20046;-67
2023/09/22 10:30:43;;;;;;;3.70;2.20;;;17.30;99.90;;;;;;5029027;28;20057;-68
2023/09/22 10:33:21;;;;;;;3.10;1.52;;;17.50;99.90;;;;;;5030998;28;20042;-67
2023/09/22 10:35:47;;;;;;;2.55;1.60;;;17.50;99.90;;;;;;4996897;28;20049;-67
2023/09/22 10:38:14;;;;;;;3.13;1.80;;;17.50;99.90;;;;;;5022510;28;20124;-68
2023/09/22 10:41:00;;;;;;;4.28;1.90;;;17.40;99.90;;;;;;5002996;28;20048;-68
2023/09/22 10:43:26;;;;;;;2.05;1.80;;;17.20;99.90;;;;;;5010994;28;20203;-67
2023/09/22 10:45:52;;;;;;;4.68;1.98;;;16.90;99.90;;;;;;5018535;28;20041;-68
2023/09/22 10:48:18;;;;;;;3.75;2.10;;;16.80;99.90;;;;;;5031743;28;20523;-67
2023/09/22 10:50:49;;;;;;;2.25;1.80;;;16.90;99.90;;;;;;5005158;28;20053;-67
2023/09/22 10:53:15;;;;;;;;;;;17.00;99.90;;;;;;5028662;28;20570;-68
2023/09/22 10:55:43;;;;;;;4.05;1.90;;;16.80;99.90;;;;;;5013617;28;19952;-68
2023/09/22 10:58:16;;;;;;;2.45;1.33;;;16.90;99.90;;;;;;5014374;28;20060;-68
2023/09/22 11:01:04;;;;;;;4.88;1.60;;;16.90;99.90;;;;;;5024222;28;20042;-67
2023/09/22 11:03:32;;;;;;;3.72;1.20;;;16.90;99.90;;;;;;5017222;28;20053;-67
2023/09/22 11:06:06;;;;;;;3.45;1.67;;;17.00;99.90;;;;;;5032202;28;20045;-69
2023/09/22 11:08:47;;;;;;;2.85;1.40;;;17.00;99.90;;;;;;5032338;28;20052;-69
2023/09/22 11:11:16;;;;;;;2.33;1.30;;;16.90;99.90;;;;;;4996817;28;20114;-70
2023/09/22 11:13:53;;;;;;;2.88;1.27;;;17.10;99.90;;;;;;5028627;28;20042;-68
2023/09/22 11:16:20;;;;;;;2.80;1.48;;;17.10;99.90;;;;;;5018388;28;20076;-68
2023/09/22 11:18:46;;;;;;;1.98;1.50;;;17.30;99.90;;;;;;5020909;28;20407;-67
2023/09/22 11:21:13;;;;;;;2.22;1.52;;;17.30;99.90;;;;;;5013249;28;20049;-67
2023/09/22 11:23:39;;;;;;;2.75;1.40;;;17.20;99.90;;;;;;5032162;28;20450;-67
2023/09/22 11:26:08;;;;;;;2.08;1.38;;;17.20;99.90;;;;;;5020699;28;20080;-68
2023/09/22 11:28:35;;;;;;;2.67;1.80;;;17.20;99.90;;;;;;5024617;28;20061;-67
2023/09/22 11:31:19;;;;;;;3.08;1.40;;;17.40;99.90;;;;;;5019659;28;20034;-68
2023/09/22 11:33:59;;;;;;;3.25;1.52;;;17.60;99.90;;;;;;5017510;28;20116;-67
2023/09/22 11:36:24;;;;;;;1.80;1.30;;;17.70;99.90;;;;;;5028653;28;20543;-67
2023/09/22 11:38:54;;;;;;;3.08;1.33;;;17.60;99.90;;;;;;5018289;28;20124;-66
2023/09/22 11:41:22;;;;;;;3.30;1.30;;;17.50;99.90;;;;;;5027598;28;20092;-68
2023/09/22 11:43:49;;;;;;;2.50;1.20;;;17.50;99.90;;;;;;5022406;28;20041;-68
2023/09/22 11:46:36;;;;;;;3.85;1.63;;;17.50;99.90;;;;;;5022645;28;20049;-67
2023/09/22 11:49:04;;;;;;;2.00;1.25;;;17.60;99.90;;;;;;5012168;28;20590;-67
2023/09/22 11:51:50;;;;;;;3.08;1.60;;;17.60;99.90;;;;;;4990821;28;20153;-68
2023/09/22 11:54:24;;;;;;;3.03;1.50;;;17.60;99.90;;;;;;5025427;28;20041;-67
2023/09/22 11:56:55;;;;;;;3.92;1.50;;;17.50;99.90;;;;;;5029571;28;20072;-67
2023/09/22 11:59:25;;;;;;;2.03;1.20;;;17.40;99.90;;;;;;5030564;28;20045;-67
2023/09/22 12:01:52;;;;;;;4.05;1.60;;;17.30;99.90;;;;;;5018846;28;20108;-68
2023/09/22 12:04:19;;;;;;;1.98;1.30;;;17.60;99.90;;;;;;5029779;28;20037;-66
2023/09/22 12:06:45;;;;;;;2.05;1.20;;;17.70;99.90;;;;;;5015694;28;20048;-64
2023/09/22 12:09:12;;;;;;;2.08;1.33;;;17.70;99.90;;;;;;5021342;28;20041;-65
2023/09/22 12:11:39;;;;;;;2.53;1.05;;;17.60;99.90;;;;;;5031170;28;20081;-65
2023/09/22 12:14:05;;;;;;;1.77;1.30;;;17.60;99.90;;;;;;5002842;28;20088;-65
2023/09/22 12:16:32;;;;;;;2.72;1.38;;;17.70;99.90;;;;;;5023595;28;20495;-65
2023/09/22 12:18:58;;;;;;;2.53;1.52;;;18.00;99.90;;;;;;5029783;28;20080;-66
2023/09/22 12:21:27;;;;;;;2.85;1.33;;;18.20;99.90;;;;;;5030857;28;20492;-65
2023/09/22 12:23:53;;;;;;;1.75;1.30;;;18.50;99.90;;;;;;5013539;28;20048;-67
2023/09/22 12:26:18;;;;;;;2.53;1.30;;;18.50;99.90;;;;;;5020064;28;20125;-69
2023/09/22 12:28:44;;;;;;;3.17;1.55;;;18.50;99.90;;;;;;5030532;28;20076;-68
2023/09/22 12:31:09;;;;;;;1.65;1.40;;;18.30;99.90;;;;;;5027162;28;20558;-67
2023/09/22 12:33:37;;;;;;;8.20;1.70;;;18.20;99.90;;;;;;5023764;28;20038;-66
2023/09/22 12:36:02;;;;;;;2.67;1.33;;;18.10;99.90;;;;;;5030305;28;20496;-66
2023/09/22 12:38:28;;;;;;;3.55;1.40;;;18.00;99.90;;;;;;5029928;28;20037;-65
2023/09/22 12:40:54;;;;;;;2.63;1.52;;;17.90;99.90;;;;;;5021816;28;20096;-65